createdAt,value
2022-10-21T00:01:02.693Z,100192.34
2022-10-21T00:03:35.095Z,100203.69
2022-10-21T00:06:05.655Z,100202.84
2022-10-21T00:08:33.706Z,100207.22
2022-10-21T00:11:04.569Z,100206.38
2022-10-21T00:13:34.579Z,100214.19
2022-10-21T00:16:10.981Z,100210.75
2022-10-21T00:18:42.817Z,100213.38
2022-10-21T00:21:13.345Z,100220.34
2022-10-21T00:23:43.131Z,100227.31
2022-10-21T00:26:13.297Z,100222.22
2022-10-21T00:28:41.986Z,100232.63
2022-10-21T00:31:12.093Z,100235.31
2022-10-21T00:33:40.347Z,100243.13
2022-10-21T00:36:08.836Z,100234.59
2022-10-21T00:38:36.745Z,100224.69
2022-10-21T00:41:04.929Z,100232.50
2022-10-21T00:43:33.249Z,100220.00
2022-10-21T00:46:07.929Z,100240.72
2022-10-21T00:48:46.224Z,100245.94
2022-10-21T00:51:17.715Z,100253.66
2022-10-21T00:53:50.689Z,100251.16
2022-10-21T00:56:28.070Z,100258.13
2022-10-21T00:59:00.578Z,100269.34
2022-10-21T01:01:28.763Z,100258.94
2022-10-21T01:03:59.484Z,100264.16
2022-10-21T01:06:27.718Z,100266.75
2022-10-21T01:08:58.085Z,100283.19
2022-10-21T01:11:29.462Z,100271.13
2022-10-21T01:14:25.103Z,100275.41
2022-10-21T01:17:43.984Z,100285.81
2022-10-21T01:20:37.872Z,100299.66
2022-10-21T01:23:30.045Z,100297.25
2022-10-21T01:26:33.022Z,100296.50
2022-10-21T01:29:39.021Z,100302.44
2022-10-21T01:32:34.909Z,100297.25
2022-10-21T01:35:08.769Z,100306.81
2022-10-21T01:37:54.369Z,100303.38
2022-10-21T01:40:38.412Z,100310.34
2022-10-21T01:43:22.079Z,100309.44
2022-10-21T01:45:56.520Z,100308.50
2022-10-21T01:48:30.534Z,100323.16
2022-10-21T01:51:03.146Z,100323.28
2022-10-21T01:53:48.504Z,100325.88
2022-10-21T01:56:18.962Z,100330.03
2022-10-21T01:58:49.746Z,100334.31
2022-10-21T02:01:23.592Z,100335.03
2022-10-21T02:03:56.289Z,100339.22
2022-10-21T02:06:26.147Z,100342.66
2022-10-21T02:08:54.367Z,100353.06
2022-10-21T02:11:22.733Z,100345.88
2022-10-21T02:14:11.644Z,100361.41
2022-10-21T02:16:41.419Z,100353.53
2022-10-21T02:19:15.327Z,100368.22
2022-10-21T02:21:47.303Z,100367.47
2022-10-21T02:24:49.334Z,100365.88
2022-10-21T02:27:18.812Z,100368.31
2022-10-21T02:29:49.564Z,100373.53
2022-10-21T02:32:44.843Z,100379.56
2022-10-21T02:35:34.831Z,100387.91
2022-10-21T02:38:25.850Z,100389.38
2022-10-21T02:41:03.818Z,100390.19
2022-10-21T02:43:37.256Z,100394.47
2022-10-21T02:46:13.875Z,100393.75
2022-10-21T02:48:45.810Z,100397.28
2022-10-21T02:51:15.168Z,100415.50
2022-10-21T02:53:43.804Z,100406.97
2022-10-21T02:56:11.790Z,100403.50
2022-10-21T02:58:39.878Z,100415.31
2022-10-21T03:01:07.922Z,100416.88
2022-10-21T03:03:35.957Z,100422.50
2022-10-21T03:06:04.144Z,100421.59
2022-10-21T03:08:32.270Z,100415.63
2022-10-21T03:11:02.834Z,100430.03
2022-10-21T03:13:31.028Z,100428.16
2022-10-21T03:15:58.988Z,100421.47
2022-10-21T03:18:26.985Z,100430.75
2022-10-21T03:20:55.939Z,100432.44
2022-10-21T03:23:23.925Z,100430.13
2022-10-21T03:25:52.073Z,100431.91
2022-10-21T03:28:20.275Z,100445.44
2022-10-21T03:30:48.302Z,100449.00
2022-10-21T03:33:16.320Z,100442.84
2022-10-21T03:35:48.320Z,100449.19
2022-10-21T03:38:16.359Z,100457.44
2022-10-21T03:40:44.386Z,100460.97
2022-10-21T03:43:13.824Z,100455.78
2022-10-21T03:45:41.878Z,100463.28
2022-10-21T03:48:09.833Z,100473.50
2022-10-21T03:50:40.460Z,100473.41
2022-10-21T03:53:18.580Z,100468.09
2022-10-21T03:55:56.753Z,100481.75
2022-10-21T03:58:26.374Z,100473.94
2022-10-21T04:00:54.606Z,100471.34
2022-10-21T04:03:23.230Z,100482.00
2022-10-21T04:05:51.189Z,100491.94
2022-10-21T04:08:19.281Z,100477.56
2022-10-21T04:10:48.607Z,100485.41
2022-10-21T04:13:16.934Z,100493.13
2022-10-21T04:15:46.375Z,100493.13
2022-10-21T04:18:14.554Z,100488.66
2022-10-21T04:20:42.539Z,100491.97
2022-10-21T04:23:10.559Z,100495.44
2022-10-21T04:25:39.410Z,100498.75
2022-10-21T04:28:07.385Z,100509.72
2022-10-21T04:30:35.358Z,100503.88
2022-10-21T04:33:04.590Z,100493.31
2022-10-21T04:35:32.538Z,100509.41
2022-10-21T04:38:01.385Z,100511.28
2022-10-21T04:40:30.546Z,100506.25
2022-10-21T04:42:58.463Z,100505.41
2022-10-21T04:45:26.541Z,100512.19
2022-10-21T04:47:54.918Z,100514.50
2022-10-21T04:50:22.958Z,100526.19
2022-10-21T04:52:50.990Z,100517.88
2022-10-21T04:55:19.141Z,100521.97
2022-10-21T04:57:47.181Z,100525.09
2022-10-21T05:00:15.493Z,100527.50
2022-10-21T05:02:43.898Z,100530.09
2022-10-21T05:05:11.850Z,100525.00
2022-10-21T05:07:39.871Z,100514.41
2022-10-21T05:10:11.647Z,100528.13
2022-10-21T05:12:40.634Z,100534.28
2022-10-21T05:15:11.244Z,100537.16
2022-10-21T05:17:40.308Z,100539.38
2022-10-21T05:20:09.335Z,100538.03
2022-10-21T05:22:38.105Z,100528.25
2022-10-21T05:25:06.675Z,100531.09
2022-10-21T05:27:34.771Z,100543.09
2022-10-21T05:30:02.980Z,100545.28
2022-10-21T05:32:31.694Z,100547.88
2022-10-21T05:34:59.678Z,100546.84
2022-10-21T05:37:27.632Z,100546.13
2022-10-21T05:39:55.766Z,100547.88
2022-10-21T05:42:23.779Z,100548.63
2022-10-21T05:44:51.843Z,100550.81
2022-10-21T05:47:20.048Z,100547.78
2022-10-21T05:49:48.127Z,100550.84
2022-10-21T05:52:16.170Z,100553.03
2022-10-21T05:54:44.255Z,100540.81
2022-10-21T05:57:12.261Z,100548.00
2022-10-21T05:59:40.266Z,100551.25
2022-10-21T06:02:09.793Z,100557.09
2022-10-21T06:04:38.860Z,100559.59
2022-10-21T06:07:07.294Z,100546.31
2022-10-21T06:09:35.554Z,100552.91
2022-10-21T06:12:03.475Z,100538.34
2022-10-21T06:14:31.664Z,100546.50
2022-10-21T06:17:00.699Z,100527.28
2022-10-21T06:19:28.704Z,100560.59
2022-10-21T06:21:56.639Z,100549.84
2022-10-21T06:24:25.539Z,100553.84
2022-10-21T06:26:53.548Z,100568.56
2022-10-21T06:29:21.506Z,100569.28
2022-10-21T06:31:49.778Z,100564.69
2022-10-21T06:36:50.550Z,100560.09
2022-10-21T06:39:19.877Z,100564.66
2022-10-21T06:41:47.849Z,100556.50
2022-10-21T06:44:15.781Z,100560.66
2022-10-21T06:46:44.030Z,100551.28
2022-10-21T06:49:12.046Z,100558.88
2022-10-21T06:51:40.014Z,100553.88
2022-10-21T06:54:08.276Z,100558.06
2022-10-21T06:56:36.318Z,100570.63
2022-10-21T06:59:04.290Z,100575.09
2022-10-21T07:01:58.726Z,100555.16
2022-10-21T07:04:26.442Z,100569.06
2022-10-21T07:06:54.566Z,100571.56
2022-10-21T07:09:22.754Z,100576.06
2022-10-21T07:11:50.727Z,100569.88
2022-10-21T07:14:21.076Z,100576.66
2022-10-21T07:16:49.709Z,100551.50
2022-10-21T07:19:18.991Z,100568.41
2022-10-21T07:21:47.943Z,100568.63
2022-10-21T07:24:18.769Z,100569.16
2022-10-21T07:26:49.879Z,100548.59
2022-10-21T07:29:18.195Z,100547.88
2022-10-21T07:31:46.551Z,100562.38
2022-10-21T07:34:14.579Z,100563.31
2022-10-21T07:36:48.626Z,100563.53
2022-10-21T07:39:18.236Z,100557.66
2022-10-21T07:41:50.194Z,100551.41
2022-10-21T07:44:19.914Z,100556.94
2022-10-21T07:46:49.801Z,100558.72
2022-10-21T07:49:19.187Z,100551.59
2022-10-21T07:51:51.011Z,100558.41
2022-10-21T07:54:20.244Z,100554.75
2022-10-21T07:56:51.942Z,100562.25
2022-10-21T07:59:22.757Z,100548.03
2022-10-21T08:01:51.586Z,100562.13
2022-10-21T08:04:22.613Z,100554.91
2022-10-21T08:06:50.942Z,100544.00
2022-10-21T08:09:19.152Z,100557.47
2022-10-21T08:11:47.662Z,100548.56
2022-10-21T08:14:16.808Z,100546.78
2022-10-21T08:16:45.405Z,100545.22
2022-10-21T08:19:24.623Z,100545.84
2022-10-21T08:21:53.620Z,100538.72
2022-10-21T08:24:21.901Z,100535.06
2022-10-21T08:26:50.316Z,100541.00
2022-10-21T08:29:18.940Z,100531.59
2022-10-21T08:31:47.064Z,100548.53
2022-10-21T08:34:15.049Z,100541.41
2022-10-21T08:36:44.359Z,100535.97
2022-10-21T08:39:12.337Z,100543.09
2022-10-21T08:42:07.515Z,100543.19
2022-10-21T08:45:00.158Z,100539.75
2022-10-21T08:47:46.650Z,100537.66
2022-10-21T08:50:24.108Z,100539.97
2022-10-21T08:52:58.082Z,100538.28
2022-10-21T08:55:35.311Z,100539.97
2022-10-21T08:58:06.205Z,100536.41
2022-10-21T09:00:43.782Z,100542.59
2022-10-21T09:03:41.231Z,100552.22
2022-10-21T09:06:19.589Z,100556.50
2022-10-21T09:09:23.727Z,100557.63
2022-10-21T09:12:32.704Z,100566.31
2022-10-21T09:15:19.272Z,100570.69
2022-10-21T09:18:07.964Z,100577.94
2022-10-21T09:21:06.082Z,100577.31
2022-10-21T09:23:54.738Z,100567.63
2022-10-21T09:26:42.406Z,100581.41
2022-10-21T09:29:27.633Z,100568.47
2022-10-21T09:32:02.718Z,100579.84
2022-10-21T09:34:42.286Z,100573.06
2022-10-21T09:37:35.822Z,100580.19
2022-10-21T09:40:29.108Z,100584.81
2022-10-21T09:43:00.256Z,100593.69
2022-10-21T09:45:39.794Z,100578.97
2022-10-21T09:48:20.867Z,100581.69
2022-10-21T09:51:02.478Z,100582.63
2022-10-21T09:53:37.112Z,100587.00
2022-10-21T09:56:18.642Z,100556.75
2022-10-21T09:59:07.170Z,100590.66
2022-10-21T10:01:39.003Z,100583.78
2022-10-21T10:04:20.444Z,100590.16
2022-10-21T10:06:48.845Z,100578.56
2022-10-21T10:09:28.464Z,100591.53
2022-10-21T10:12:02.277Z,100588.94
2022-10-21T10:14:34.772Z,100588.09
2022-10-21T10:17:23.025Z,100596.31
2022-10-21T10:20:06.118Z,100591.31
2022-10-21T10:22:42.359Z,100593.19
2022-10-21T10:25:17.594Z,100596.84
2022-10-21T10:27:59.908Z,100597.91
2022-10-21T10:30:36.616Z,100599.78
2022-10-21T10:33:21.230Z,100605.13
2022-10-21T10:35:55.371Z,100612.31
2022-10-21T10:38:56.427Z,100605.53
2022-10-21T10:41:40.698Z,100609.09
2022-10-21T10:44:37.732Z,100603.97
2022-10-21T10:47:08.023Z,100599.69
2022-10-21T10:49:42.111Z,100591.53
2022-10-21T10:52:13.129Z,100593.94
2022-10-21T10:54:42.975Z,100600.09
2022-10-21T10:57:16.242Z,100595.81
2022-10-21T11:00:10.796Z,100599.59
2022-10-21T11:03:08.014Z,100593.75
2022-10-21T11:05:44.728Z,100587.78
2022-10-21T11:08:23.933Z,100578.28
2022-10-21T11:11:03.977Z,100585.50
2022-10-21T11:13:37.904Z,100584.00
2022-10-21T11:16:15.578Z,100592.50
2022-10-21T11:19:00.217Z,100594.25
2022-10-21T11:21:46.730Z,100595.19
2022-10-21T11:24:46.303Z,100582.22
2022-10-21T11:27:29.290Z,100588.28
2022-10-21T11:30:35.983Z,100581.50
2022-10-21T11:33:18.669Z,100591.94
2022-10-21T11:35:46.593Z,100583.28
2022-10-21T11:38:43.766Z,100589.53
2022-10-21T11:41:25.734Z,100586.91
2022-10-21T11:44:02.198Z,100576.59
2022-10-21T11:46:48.703Z,100586.09
2022-10-21T11:49:35.155Z,100572.81
2022-10-21T11:52:18.596Z,100566.97
2022-10-21T11:55:14.908Z,100584.00
2022-10-21T11:58:05.101Z,100578.88
2022-10-21T12:00:47.097Z,100582.31
2022-10-21T12:03:40.323Z,100578.25
2022-10-21T12:06:39.359Z,100573.25
2022-10-21T12:09:18.817Z,100573.34
2022-10-21T12:11:52.365Z,100576.59
2022-10-21T12:14:37.247Z,100575.75
2022-10-21T12:17:13.393Z,100576.59
2022-10-21T12:19:42.222Z,100570.84
2022-10-21T12:22:11.780Z,100586.91
2022-10-21T12:25:06.869Z,100586.28
2022-10-21T12:28:07.376Z,100581.16
2022-10-21T12:30:51.799Z,100581.16
2022-10-21T12:33:42.535Z,100570.75
2022-10-21T12:36:27.740Z,100578.78
2022-10-21T12:38:58.079Z,100577.94
2022-10-21T12:41:30.722Z,100571.03
2022-10-21T12:44:10.386Z,100570.22
2022-10-21T12:46:40.963Z,100575.44
2022-10-21T12:49:11.669Z,100577.31
2022-10-21T12:51:40.778Z,100579.06
2022-10-21T12:54:18.698Z,100577.50
2022-10-21T12:56:51.117Z,100577.50
2022-10-21T12:59:33.369Z,100579.34
2022-10-21T13:02:10.736Z,100576.84
2022-10-21T13:04:38.649Z,100576.84
2022-10-21T13:07:33.858Z,100576.09
2022-10-21T13:10:01.830Z,100590.09
2022-10-21T13:12:32.940Z,100580.91
2022-10-21T13:15:06.325Z,100587.59
2022-10-21T13:17:51.892Z,100590.28
2022-10-21T13:20:23.009Z,100596.44
2022-10-21T13:23:03.364Z,100593.00
2022-10-21T13:25:37.112Z,100593.94
2022-10-21T13:28:18.701Z,100592.16
2022-10-21T13:30:49.656Z,100583.50
2022-10-21T13:33:52.774Z,100587.88
2022-10-21T13:36:44.442Z,100581.94
2022-10-21T13:39:35.213Z,100580.06
2022-10-21T13:42:16.784Z,100572.34
2022-10-21T13:45:04.838Z,100566.41
2022-10-21T13:47:36.048Z,100563.69
2022-10-21T13:50:17.873Z,100559.19
2022-10-21T13:52:47.196Z,100567.03
2022-10-21T13:55:21.479Z,100568.91
2022-10-21T13:57:53.174Z,100570.66
2022-10-21T14:00:33.725Z,100539.63
2022-10-21T14:03:06.098Z,100563.84
2022-10-21T14:05:42.759Z,100559.56
2022-10-21T14:08:44.482Z,100563.03
2022-10-21T14:11:23.899Z,100554.38
2022-10-21T14:13:52.576Z,100551.84
2022-10-21T14:16:32.262Z,100539.13
2022-10-21T14:19:03.479Z,100545.06
2022-10-21T14:21:36.539Z,100541.94
2022-10-21T14:24:08.042Z,100535.69
2022-10-21T14:26:36.221Z,100534.84
2022-10-21T14:29:06.167Z,100531.59
2022-10-21T14:31:35.544Z,100535.88
2022-10-21T14:34:07.818Z,100532.56
2022-10-21T14:36:35.762Z,100536.09
2022-10-21T14:39:09.975Z,100513.34
2022-10-21T14:41:46.559Z,100525.66
2022-10-21T14:44:27.312Z,100517.00
2022-10-21T14:46:56.155Z,100508.56
2022-10-21T14:49:29.636Z,100514.41
2022-10-21T14:52:04.625Z,100513.47
2022-10-21T14:54:35.932Z,100507.31
2022-10-21T14:57:05.136Z,100508.16
2022-10-21T14:59:40.786Z,100508.97
2022-10-21T15:02:38.929Z,100502.19
2022-10-21T15:05:37.239Z,100503.78
2022-10-21T15:08:30.292Z,100501.16
2022-10-21T15:11:03.204Z,100488.13
2022-10-21T15:13:31.495Z,100492.50
2022-10-21T15:16:01.641Z,100491.03
2022-10-21T15:18:54.741Z,100485.84
2022-10-21T15:21:47.307Z,100490.22
2022-10-21T15:24:22.780Z,100481.44
2022-10-21T15:26:53.914Z,100480.19
2022-10-21T15:29:21.888Z,100480.63
2022-10-21T15:31:51.701Z,100480.63
2022-10-21T15:34:19.403Z,100475.41
2022-10-21T15:36:47.672Z,100471.88
2022-10-21T15:39:15.814Z,100478.84
2022-10-21T15:41:44.234Z,100474.56
2022-10-21T15:44:21.124Z,100459.44
2022-10-21T15:46:58.038Z,100472.81
2022-10-21T15:49:29.574Z,100456.22
2022-10-21T15:51:57.678Z,100445.81
2022-10-21T15:54:25.826Z,100452.69
2022-10-21T15:56:56.736Z,100443.09
2022-10-21T15:59:30.767Z,100421.19
2022-10-21T16:02:01.300Z,100440.59
2022-10-21T16:04:30.588Z,100447.56
2022-10-21T16:06:58.765Z,100446.00
2022-10-21T16:09:32.633Z,100446.09
2022-10-21T16:12:01.565Z,100447.97
2022-10-21T16:14:31.183Z,100449.75
2022-10-21T16:17:00.482Z,100441.94
2022-10-21T16:19:30.073Z,100442.78
2022-10-21T16:21:58.067Z,100420.44
2022-10-21T16:24:26.405Z,100444.22
2022-10-21T16:26:54.395Z,100436.31
2022-10-21T16:29:25.432Z,100440.59
2022-10-21T16:31:54.531Z,100387.31
2022-10-21T16:34:22.617Z,100420.34
2022-10-21T16:36:50.571Z,100422.75
2022-10-21T16:39:22.806Z,100419.22
2022-10-21T16:41:51.430Z,100427.75
2022-10-21T16:44:20.075Z,100427.66
2022-10-21T16:46:54.742Z,100420.56
2022-10-21T16:49:26.272Z,100419.63
2022-10-21T16:51:55.700Z,100422.22
2022-10-21T16:54:27.391Z,100407.13
2022-10-21T16:56:55.834Z,100416.13
2022-10-21T16:59:24.147Z,100407.44
2022-10-21T17:01:52.971Z,100392.22
2022-10-21T17:04:20.970Z,100398.03
2022-10-21T17:06:49.274Z,100398.16
2022-10-21T17:09:21.588Z,100397.22
2022-10-21T17:11:49.523Z,100395.53
2022-10-21T17:14:21.365Z,100392.09
2022-10-21T17:16:50.758Z,100381.56
2022-10-21T17:19:18.681Z,100366.25
2022-10-21T17:21:46.975Z,100372.06
2022-10-21T17:24:18.533Z,100372.91
2022-10-21T17:26:46.724Z,100372.91
2022-10-21T17:29:14.864Z,100371.97
2022-10-21T17:31:44.046Z,100362.38
2022-10-21T17:34:30.225Z,100361.53
2022-10-21T17:37:01.497Z,100360.59
2022-10-21T17:39:29.683Z,100345.50
2022-10-21T17:41:57.666Z,100358.75
2022-10-21T17:44:25.782Z,100344.25
2022-10-21T17:46:55.166Z,100349.06
2022-10-21T17:49:24.872Z,100330.38
2022-10-21T17:51:55.122Z,100342.19
2022-10-21T17:54:26.577Z,100344.78
2022-10-21T17:56:57.313Z,100340.41
2022-10-21T17:59:27.356Z,100327.16
2022-10-21T18:01:55.365Z,100327.16
2022-10-21T18:04:23.324Z,100316.72
2022-10-21T18:06:51.591Z,100317.44
2022-10-21T18:09:19.894Z,100328.72
2022-10-21T18:11:49.958Z,100335.59
2022-10-21T18:14:18.295Z,100331.31
2022-10-21T18:16:46.509Z,100339.97
2022-10-21T18:19:14.990Z,100321.09
2022-10-21T18:21:43.215Z,100312.75
2022-10-21T18:24:12.598Z,100317.00
2022-10-21T18:26:41.006Z,100273.13
2022-10-21T18:29:10.062Z,100294.38
2022-10-21T18:31:38.678Z,100289.88
2022-10-21T18:34:09.742Z,100295.09
2022-10-21T18:36:37.981Z,100297.72
2022-10-21T18:39:07.365Z,100287.19
2022-10-21T18:41:35.839Z,100275.91
2022-10-21T18:44:09.985Z,100247.16
2022-10-21T18:46:41.725Z,100248.69
2022-10-21T18:49:13.401Z,100276.84
2022-10-21T18:51:41.951Z,100266.84
2022-10-21T18:54:10.001Z,100276.34
2022-10-21T18:56:37.996Z,100265.91
2022-10-21T18:59:07.025Z,100258.53
2022-10-21T19:01:35.000Z,100268.28
2022-10-21T19:04:03.168Z,100220.88
2022-10-21T19:06:41.093Z,100253.47
2022-10-21T19:09:13.730Z,100237.72
2022-10-21T19:11:42.927Z,100241.97
2022-10-21T19:14:14.117Z,100255.75
2022-10-21T19:16:44.668Z,100256.59
2022-10-21T19:19:12.408Z,100251.13
2022-10-21T19:21:42.830Z,100250.31
2022-10-21T19:24:11.472Z,100262.41
2022-10-21T19:26:42.360Z,100242.38
2022-10-21T19:29:14.301Z,100233.50
2022-10-21T19:31:43.774Z,100244.75
2022-10-21T19:34:16.705Z,100246.31
2022-10-21T19:36:45.259Z,100243.59
2022-10-21T19:39:14.327Z,100231.38
2022-10-21T19:41:42.726Z,100156.75
2022-10-21T19:44:11.084Z,100223.44
2022-10-21T19:46:39.950Z,100219.88
2022-10-21T19:49:09.948Z,100225.00
2022-10-21T19:51:37.871Z,100229.25
2022-10-21T19:54:08.756Z,100213.00
2022-10-21T19:56:36.856Z,100200.69
2022-10-21T19:59:05.334Z,100195.34
2022-10-21T20:01:34.753Z,100215.16
2022-10-21T20:04:04.029Z,100213.31
2022-10-21T20:06:35.362Z,100211.53
2022-10-21T20:09:07.170Z,100208.91
2022-10-21T20:11:35.317Z,100209.88
2022-10-21T20:14:04.912Z,100198.47
2022-10-21T20:16:40.855Z,100197.53
2022-10-21T20:19:09.611Z,100188.34
2022-10-21T20:21:37.969Z,100196.59
2022-10-21T20:24:10.204Z,100200.03
2022-10-21T20:29:11.821Z,100186.97
2022-10-21T20:31:41.739Z,100187.94
2022-10-21T20:34:11.242Z,100194.81
2022-10-21T20:36:39.294Z,100187.22
2022-10-21T20:39:07.567Z,100181.88
2022-10-21T20:41:37.875Z,100187.09
2022-10-21T20:44:08.859Z,100181.16
2022-10-21T20:46:38.002Z,100168.94
2022-10-21T20:49:07.999Z,100179.38
2022-10-21T20:51:39.653Z,100174.16
2022-10-21T20:54:12.272Z,100187.94
2022-10-21T20:56:42.098Z,100195.75
2022-10-21T20:59:14.769Z,100192.31
2022-10-21T21:01:45.873Z,100195.75
2022-10-21T21:04:17.083Z,100183.53
2022-10-21T21:06:48.243Z,100183.44
2022-10-21T21:12:08.225Z,100182.47
2022-10-21T21:14:36.238Z,100188.53
2022-10-21T21:17:05.077Z,100189.47
2022-10-21T21:19:33.712Z,100177.59
2022-10-21T21:22:01.686Z,100158.44
2022-10-21T21:24:29.554Z,100184.97
2022-10-21T21:26:57.840Z,100191.84
2022-10-21T21:29:25.854Z,100196.13
2022-10-21T21:31:53.875Z,100185.69
2022-10-21T21:34:23.506Z,100192.56
2022-10-21T21:36:51.459Z,100197.78
2022-10-21T21:39:19.474Z,100177.38
2022-10-21T21:41:48.824Z,100184.03
2022-10-21T21:44:16.849Z,100182.47
2022-10-21T21:46:44.765Z,100181.31
2022-10-21T21:49:12.876Z,100177.03
2022-10-21T21:51:40.813Z,100183.09
2022-10-21T21:54:08.740Z,100175.25
2022-10-21T21:56:37.699Z,100163.50
2022-10-21T21:59:06.794Z,100165.03
2022-10-21T22:01:34.977Z,100170.03
2022-10-21T22:04:03.533Z,100154.72
2022-10-21T22:06:35.386Z,100150.09
2022-10-21T22:09:11.735Z,100153.66
2022-10-21T22:11:39.873Z,100164.56
2022-10-21T22:14:07.910Z,100185.81
2022-10-21T22:16:39.543Z,100168.13
2022-10-21T22:19:07.546Z,100172.03
2022-10-21T22:21:35.552Z,100178.22
2022-10-21T22:24:03.679Z,100174.75
2022-10-21T22:26:31.789Z,100173.00
2022-10-21T22:28:59.762Z,100176.53
2022-10-21T22:31:30.443Z,100175.00
2022-10-21T22:34:04.373Z,100175.00
2022-10-21T22:36:34.954Z,100175.00
2022-10-21T22:39:04.099Z,100169.03
2022-10-21T22:41:32.722Z,100174.88
2022-10-21T22:44:00.793Z,100163.72
2022-10-21T22:46:34.319Z,100172.28
2022-10-21T22:49:05.458Z,100147.00
2022-10-21T22:51:35.874Z,100153.19
2022-10-21T22:54:05.646Z,100160.88
2022-10-21T22:56:38.871Z,100158.28
2022-10-21T22:59:06.788Z,100154.31
2022-10-21T23:01:34.872Z,100146.06
2022-10-21T23:04:05.115Z,100152.94
2022-10-21T23:06:35.039Z,100145.94
2022-10-21T23:09:05.127Z,100152.72
2022-10-21T23:11:33.779Z,100152.72
2022-10-21T23:14:03.137Z,100148.56
2022-10-21T23:16:32.514Z,100152.84
2022-10-21T23:19:00.702Z,100146.66
2022-10-21T23:21:29.458Z,100144.88
2022-10-21T23:23:57.623Z,100147.38
2022-10-21T23:26:26.403Z,100141.09
2022-10-21T23:28:54.464Z,100127.94
2022-10-21T23:31:22.654Z,100126.03
2022-10-21T23:33:53.080Z,100113.81
2022-10-21T23:36:21.043Z,100122.38
2022-10-21T23:38:49.038Z,100047.44
2022-10-21T23:41:17.145Z,100117.03
2022-10-21T23:43:45.091Z,100110.75
2022-10-21T23:46:13.168Z,100115.84
2022-10-21T23:48:43.642Z,100109.78
2022-10-21T23:51:11.729Z,100121.91
2022-10-21T23:53:39.859Z,100106.00
2022-10-21T23:56:09.281Z,100087.47
2022-10-21T23:58:37.285Z,100120.94
